sensor_id;sensor_type;location;lat;lon;timestamp;pressure;altitude;pressure_sealevel;temperature;humidity
46291;BME280;32023;44.444;26.006;2022-12-07T00:01:10;100565.81;;;5.78;90.37
46291;BME280;32023;44.444;26.006;2022-12-07T00:03:52;100566.66;;;5.79;90.35
46291;BME280;32023;44.444;26.006;2022-12-07T00:06:19;100570.28;;;5.73;90.57
46291;BME280;32023;44.444;26.006;2022-12-07T00:08:51;100574.28;;;5.70;90.93
46291;BME280;32023;44.444;26.006;2022-12-07T00:14:24;100574.53;;;5.69;90.86
46291;BME280;32023;44.444;26.006;2022-12-07T00:16:56;100574.13;;;5.65;90.88
46291;BME280;32023;44.444;26.006;2022-12-07T00:19:27;100566.09;;;5.70;90.57
46291;BME280;32023;44.444;26.006;2022-12-07T00:21:53;100572.00;;;5.67;90.76
46291;BME280;32023;44.444;26.006;2022-12-07T00:24:20;100570.34;;;5.66;90.82
46291;BME280;32023;44.444;26.006;2022-12-07T00:26:50;100564.06;;;5.66;91.25
46291;BME280;32023;44.444;26.006;2022-12-07T00:29:25;100565.09;;;5.65;91.01
46291;BME280;32023;44.444;26.006;2022-12-07T00:31:54;100571.63;;;5.64;91.13
46291;BME280;32023;44.444;26.006;2022-12-07T00:34:21;100571.88;;;5.56;91.10
46291;BME280;32023;44.444;26.006;2022-12-07T00:36:48;100559.53;;;5.53;90.91
46291;BME280;32023;44.444;26.006;2022-12-07T00:39:16;100554.91;;;5.54;91.08
46291;BME280;32023;44.444;26.006;2022-12-07T00:41:45;100552.38;;;5.52;91.11
46291;BME280;32023;44.444;26.006;2022-12-07T00:44:16;100557.84;;;5.52;90.91
46291;BME280;32023;44.444;26.006;2022-12-07T00:46:42;100556.59;;;5.48;91.25
46291;BME280;32023;44.444;26.006;2022-12-07T00:49:11;100565.44;;;5.50;91.24
46291;BME280;32023;44.444;26.006;2022-12-07T00:51:38;100568.38;;;5.49;91.31
46291;BME280;32023;44.444;26.006;2022-12-07T00:54:10;100573.00;;;5.48;91.46
46291;BME280;32023;44.444;26.006;2022-12-07T00:56:39;100562.47;;;5.52;91.51
46291;BME280;32023;44.444;26.006;2022-12-07T00:59:13;100571.03;;;5.55;91.79
46291;BME280;32023;44.444;26.006;2022-12-07T01:01:43;100566.66;;;5.54;91.87
46291;BME280;32023;44.444;26.006;2022-12-07T01:04:12;100582.22;;;5.54;91.83
46291;BME280;32023;44.444;26.006;2022-12-07T01:06:41;100572.34;;;5.53;92.45
46291;BME280;32023;44.444;26.006;2022-12-07T01:09:08;100568.16;;;5.50;92.63
46291;BME280;32023;44.444;26.006;2022-12-07T01:11:34;100567.13;;;5.51;92.55
46291;BME280;32023;44.444;26.006;2022-12-07T01:14:01;100564.81;;;5.48;92.50
46291;BME280;32023;44.444;26.006;2022-12-07T01:16:32;100564.59;;;5.50;92.73
46291;BME280;32023;44.444;26.006;2022-12-07T01:18:59;100556.59;;;5.48;92.83
46291;BME280;32023;44.444;26.006;2022-12-07T01:21:42;100550.53;;;5.46;92.71
46291;BME280;32023;44.444;26.006;2022-12-07T01:24:11;100546.31;;;5.50;93.30
46291;BME280;32023;44.444;26.006;2022-12-07T01:26:37;100549.88;;;5.51;92.90
46291;BME280;32023;44.444;26.006;2022-12-07T01:29:04;100546.31;;;5.50;92.96
46291;BME280;32023;44.444;26.006;2022-12-07T01:31:31;100536.00;;;5.52;93.55
46291;BME280;32023;44.444;26.006;2022-12-07T01:33:59;100542.34;;;5.46;93.60
46291;BME280;32023;44.444;26.006;2022-12-07T01:36:31;100546.13;;;5.45;93.60
46291;BME280;32023;44.444;26.006;2022-12-07T01:39:04;100535.66;;;5.42;93.94
46291;BME280;32023;44.444;26.006;2022-12-07T01:41:33;100544.69;;;5.43;94.15
46291;BME280;32023;44.444;26.006;2022-12-07T01:44:20;100542.84;;;5.37;93.77
46291;BME280;32023;44.444;26.006;2022-12-07T01:46:56;100536.56;;;5.36;94.23
46291;BME280;32023;44.444;26.006;2022-12-07T01:49:41;100528.13;;;5.38;94.08
46291;BME280;32023;44.444;26.006;2022-12-07T01:52:30;100530.25;;;5.36;94.06
46291;BME280;32023;44.444;26.006;2022-12-07T01:55:01;100533.59;;;5.38;93.86
46291;BME280;32023;44.444;26.006;2022-12-07T01:57:31;100516.16;;;5.39;94.29
46291;BME280;32023;44.444;26.006;2022-12-07T02:00:00;100512.13;;;5.41;93.83
46291;BME280;32023;44.444;26.006;2022-12-07T02:02:41;100505.63;;;5.42;94.07
46291;BME280;32023;44.444;26.006;2022-12-07T02:05:14;100508.56;;;5.41;94.10
46291;BME280;32023;44.444;26.006;2022-12-07T02:07:48;100508.34;;;5.42;93.72
46291;BME280;32023;44.444;26.006;2022-12-07T02:10:27;100505.91;;;5.34;94.03
46291;BME280;32023;44.444;26.006;2022-12-07T02:13:06;100511.81;;;5.31;93.93
46291;BME280;32023;44.444;26.006;2022-12-07T02:21:45;100522.53;;;5.26;94.25
46291;BME280;32023;44.444;26.006;2022-12-07T02:24:31;100507.00;;;5.26;94.85
46291;BME280;32023;44.444;26.006;2022-12-07T02:27:36;100503.88;;;5.23;94.94
46291;BME280;32023;44.444;26.006;2022-12-07T02:32:40;100497.53;;;5.29;95.04
46291;BME280;32023;44.444;26.006;2022-12-07T02:35:30;100325.63;;;3.85;94.54
46291;BME280;32023;44.444;26.006;2022-12-07T02:38:23;100482.66;;;5.25;94.69
46291;BME280;32023;44.444;26.006;2022-12-07T02:40:54;100482.22;;;5.28;94.83
46291;BME280;32023;44.444;26.006;2022-12-07T02:43:26;100483.06;;;5.28;94.80
46291;BME280;32023;44.444;26.006;2022-12-07T02:45:59;100480.09;;;5.30;94.52
46291;BME280;32023;44.444;26.006;2022-12-07T02:48:28;100485.78;;;5.28;94.22
46291;BME280;32023;44.444;26.006;2022-12-07T02:50:55;100478.66;;;5.27;93.92
46291;BME280;32023;44.444;26.006;2022-12-07T02:53:42;100476.97;;;5.26;94.28
46291;BME280;32023;44.444;26.006;2022-12-07T02:56:30;100467.28;;;5.30;94.39
46291;BME280;32023;44.444;26.006;2022-12-07T02:59:26;100489.50;;;5.34;94.42
46291;BME280;32023;44.444;26.006;2022-12-07T03:04:58;100495.03;;;5.27;94.60
46291;BME280;32023;44.444;26.006;2022-12-07T03:07:51;100494.00;;;5.22;94.23
46291;BME280;32023;44.444;26.006;2022-12-07T03:10:42;100489.00;;;5.19;94.97
46291;BME280;32023;44.444;26.006;2022-12-07T03:16:41;100488.72;;;5.02;95.18
46291;BME280;32023;44.444;26.006;2022-12-07T03:19:16;100497.13;;;5.01;96.07
46291;BME280;32023;44.444;26.006;2022-12-07T03:21:53;100501.53;;;5.02;96.19
46291;BME280;32023;44.444;26.006;2022-12-07T03:24:31;100493.59;;;4.94;96.35
46291;BME280;32023;44.444;26.006;2022-12-07T03:27:16;100501.56;;;4.95;96.61
46291;BME280;32023;44.444;26.006;2022-12-07T03:29:55;100493.59;;;4.94;96.50
46291;BME280;32023;44.444;26.006;2022-12-07T03:32:39;100495.31;;;4.88;96.75
46291;BME280;32023;44.444;26.006;2022-12-07T03:35:20;100500.75;;;4.88;96.76
46291;BME280;32023;44.444;26.006;2022-12-07T03:37:57;100511.28;;;4.84;96.99
46291;BME280;32023;44.444;26.006;2022-12-07T03:40:46;100499.53;;;4.84;97.88
46291;BME280;32023;44.444;26.006;2022-12-07T03:43:17;100494.06;;;4.84;97.38
46291;BME280;32023;44.444;26.006;2022-12-07T03:46:12;100492.19;;;4.84;97.86
46291;BME280;32023;44.444;26.006;2022-12-07T03:48:51;100486.28;;;4.88;97.96
46291;BME280;32023;44.444;26.006;2022-12-07T03:51:28;100499.53;;;4.84;97.56
46291;BME280;32023;44.444;26.006;2022-12-07T03:54:10;100501.41;;;4.83;98.24
46291;BME280;32023;44.444;26.006;2022-12-07T03:56:40;100504.59;;;4.80;98.46
46291;BME280;32023;44.444;26.006;2022-12-07T03:59:08;100504.19;;;4.77;98.28
46291;BME280;32023;44.444;26.006;2022-12-07T04:01:35;100502.50;;;4.76;98.00
46291;BME280;32023;44.444;26.006;2022-12-07T04:04:05;100498.97;;;4.75;98.73
46291;BME280;32023;44.444;26.006;2022-12-07T04:06:31;100506.31;;;4.75;98.27
46291;BME280;32023;44.444;26.006;2022-12-07T04:08:57;100497.50;;;4.73;98.28
46291;BME280;32023;44.444;26.006;2022-12-07T04:11:24;100498.56;;;4.72;98.74
46291;BME280;32023;44.444;26.006;2022-12-07T04:13:59;100497.50;;;4.73;99.03
46291;BME280;32023;44.444;26.006;2022-12-07T04:16:48;100492.03;;;4.73;98.81
46291;BME280;32023;44.444;26.006;2022-12-07T04:19:24;100486.81;;;4.71;99.14
46291;BME280;32023;44.444;26.006;2022-12-07T04:22:01;100488.06;;;4.75;99.21
46291;BME280;32023;44.444;26.006;2022-12-07T04:24:34;100488.66;;;4.77;99.02
46291;BME280;32023;44.444;26.006;2022-12-07T04:27:00;100485.31;;;4.75;98.29
46291;BME280;32023;44.444;26.006;2022-12-07T04:29:27;100485.72;;;4.79;98.84
46291;BME280;32023;44.444;26.006;2022-12-07T04:31:53;100497.88;;;4.76;97.99
46291;BME280;32023;44.444;26.006;2022-12-07T04:34:20;100489.09;;;4.74;98.01
46291;BME280;32023;44.444;26.006;2022-12-07T04:36:50;100489.09;;;4.74;98.34
46291;BME280;32023;44.444;26.006;2022-12-07T04:39:30;100480.47;;;4.77;97.83
46291;BME280;32023;44.444;26.006;2022-12-07T04:41:58;100479.44;;;4.78;98.15
46291;BME280;32023;44.444;26.006;2022-12-07T04:44:26;100486.31;;;4.81;97.57
46291;BME280;32023;44.444;26.006;2022-12-07T04:46:56;100495.31;;;4.88;97.37
46291;BME280;32023;44.444;26.006;2022-12-07T04:49:23;100485.69;;;4.85;97.38
46291;BME280;32023;44.444;26.006;2022-12-07T04:51:51;100488.41;;;4.85;97.26
46291;BME280;32023;44.444;26.006;2022-12-07T04:54:23;100478.09;;;4.88;96.82
46291;BME280;32023;44.444;26.006;2022-12-07T04:56:54;100480.81;;;4.88;96.97
46291;BME280;32023;44.444;26.006;2022-12-07T04:59:25;100481.44;;;4.90;96.99
46291;BME280;32023;44.444;26.006;2022-12-07T05:01:51;100473.88;;;4.92;97.03
46291;BME280;32023;44.444;26.006;2022-12-07T05:04:18;100478.09;;;4.88;96.30
46291;BME280;32023;44.444;26.006;2022-12-07T05:06:47;100487.13;;;4.88;96.46
46291;BME280;32023;44.444;26.006;2022-12-07T05:09:14;100485.41;;;4.94;96.62
46291;BME280;32023;44.444;26.006;2022-12-07T05:11:41;100477.84;;;4.96;96.58
46291;BME280;32023;44.444;26.006;2022-12-07T05:14:19;100476.78;;;4.97;96.08
46291;BME280;32023;44.444;26.006;2022-12-07T05:16:47;100482.25;;;4.97;96.32
46291;BME280;32023;44.444;26.006;2022-12-07T05:19:17;100483.13;;;4.91;96.21
46291;BME280;32023;44.444;26.006;2022-12-07T05:21:51;100486.28;;;4.88;96.47
46291;BME280;32023;44.444;26.006;2022-12-07T05:24:28;100485.03;;;4.83;96.41
46291;BME280;32023;44.444;26.006;2022-12-07T05:27:08;100491.19;;;4.79;96.48
46291;BME280;32023;44.444;26.006;2022-12-07T05:29:37;100487.16;;;4.81;96.60
46291;BME280;32023;44.444;26.006;2022-12-07T05:32:10;100483.56;;;4.88;97.00
46291;BME280;32023;44.444;26.006;2022-12-07T05:34:55;100478.09;;;4.88;96.82
46291;BME280;32023;44.444;26.006;2022-12-07T05:37:28;100481.91;;;4.87;96.42
46291;BME280;32023;44.444;26.006;2022-12-07T05:39:57;100481.66;;;4.88;96.86
46291;BME280;32023;44.444;26.006;2022-12-07T05:42:42;100487.78;;;4.83;97.09
46291;BME280;32023;44.444;26.006;2022-12-07T05:45:15;100485.69;;;4.85;97.01
46291;BME280;32023;44.444;26.006;2022-12-07T05:47:42;100484.22;;;4.83;97.39
46291;BME280;32023;44.444;26.006;2022-12-07T05:50:11;100481.13;;;4.79;96.92
46291;BME280;32023;44.444;26.006;2022-12-07T05:53:12;100499.13;;;4.80;97.22
46291;BME280;32023;44.444;26.006;2022-12-07T05:55:58;100490.16;;;4.73;96.93
46291;BME280;32023;44.444;26.006;2022-12-07T05:58:43;100498.97;;;4.75;97.30
46291;BME280;32023;44.444;26.006;2022-12-07T06:01:31;100498.78;;;4.70;97.75
46291;BME280;32023;44.444;26.006;2022-12-07T06:04:03;100490.38;;;4.72;97.90
46291;BME280;32023;44.444;26.006;2022-12-07T06:06:32;100500.00;;;4.74;97.66
46291;BME280;32023;44.444;26.006;2022-12-07T06:08:59;100496.84;;;4.77;97.26
46291;BME280;32023;44.444;26.006;2022-12-07T06:11:28;100507.94;;;4.82;96.74
46291;BME280;32023;44.444;26.006;2022-12-07T06:14:21;100505.63;;;4.86;96.45
46291;BME280;32023;44.444;26.006;2022-12-07T06:16:58;100503.47;;;4.95;96.82
46291;BME280;32023;44.444;26.006;2022-12-07T06:19:31;100509.97;;;4.94;95.42
46291;BME280;32023;44.444;26.006;2022-12-07T06:21:57;100513.31;;;4.96;95.55
46291;BME280;32023;44.444;26.006;2022-12-07T06:24:32;100480.28;;;4.72;95.26
46291;BME280;32023;44.444;26.006;2022-12-07T06:27:07;100514.16;;;4.96;94.53
46291;BME280;32023;44.444;26.006;2022-12-07T06:29:43;100520.84;;;5.00;95.00
46291;BME280;32023;44.444;26.006;2022-12-07T06:32:10;100522.56;;;4.95;94.26
46291;BME280;32023;44.444;26.006;2022-12-07T06:34:40;100520.19;;;5.05;94.58
46291;BME280;32023;44.444;26.006;2022-12-07T06:37:07;100514.72;;;5.05;93.85
46291;BME280;32023;44.444;26.006;2022-12-07T06:39:33;100520.19;;;5.05;94.08
46291;BME280;32023;44.444;26.006;2022-12-07T06:42:07;100519.09;;;5.12;93.67
46291;BME280;32023;44.444;26.006;2022-12-07T06:48:14;100527.97;;;5.01;93.05
46291;BME280;32023;44.444;26.006;2022-12-07T06:51:09;100522.06;;;5.04;93.03
46291;BME280;32023;44.444;26.006;2022-12-07T06:53:41;100517.47;;;5.05;92.86
46291;BME280;32023;44.444;26.006;2022-12-07T07:00:10;100511.75;;;5.13;92.82
46291;BME280;32023;44.444;26.006;2022-12-07T07:02:59;100511.75;;;5.13;92.56
46291;BME280;32023;44.444;26.006;2022-12-07T07:06:00;100519.13;;;5.06;92.30
46291;BME280;32023;44.444;26.006;2022-12-07T07:14:50;100502.75;;;5.06;92.30
46291;BME280;32023;44.444;26.006;2022-12-07T07:44:22;100533.00;;;5.04;91.50
46291;BME280;32023;44.444;26.006;2022-12-07T08:00:23;100531.34;;;4.97;92.14
46291;BME280;32023;44.444;26.006;2022-12-07T08:03:28;100528.19;;;5.00;92.13
46291;BME280;32023;44.444;26.006;2022-12-07T08:06:03;100532.19;;;4.97;92.25
46291;BME280;32023;44.444;26.006;2022-12-07T08:08:37;100537.59;;;5.04;92.13
46291;BME280;32023;44.444;26.006;2022-12-07T09:01:39;100504.47;;;5.25;92.09
46291;BME280;32023;44.444;26.006;2022-12-07T09:04:29;100458.06;;;4.69;91.21
46291;BME280;32023;44.444;26.006;2022-12-07T09:07:33;100497.53;;;5.29;91.34
46291;BME280;32023;44.444;26.006;2022-12-07T09:16:35;100497.63;;;5.16;90.23
46291;BME280;32023;44.444;26.006;2022-12-07T09:22:50;100485.03;;;5.15;90.72
46291;BME280;32023;44.444;26.006;2022-12-07T09:25:19;100483.72;;;5.24;90.89
46291;BME280;32023;44.444;26.006;2022-12-07T09:35:36;100480.59;;;5.45;90.84
46291;BME280;32023;44.444;26.006;2022-12-07T09:38:12;100480.78;;;5.50;90.27
46291;BME280;32023;44.444;26.006;2022-12-07T09:41:19;100475.88;;;5.34;89.62
46291;BME280;32023;44.444;26.006;2022-12-07T09:44:39;100473.31;;;5.39;90.33
46291;BME280;32023;44.444;26.006;2022-12-07T09:53:52;100469.84;;;5.25;90.30
46291;BME280;32023;44.444;26.006;2022-12-07T10:05:50;100462.59;;;5.38;90.02
46291;BME280;32023;44.444;26.006;2022-12-07T10:11:58;100448.66;;;5.46;90.48
46291;BME280;32023;44.444;26.006;2022-12-07T10:15:00;100451.22;;;5.41;90.13
46291;BME280;32023;44.444;26.006;2022-12-07T10:24:54;100440.19;;;5.72;89.31
46291;BME280;32023;44.444;26.006;2022-12-07T10:41:12;100419.03;;;5.67;88.70
46291;BME280;32023;44.444;26.006;2022-12-07T10:44:04;100420.53;;;5.63;88.05
46291;BME280;32023;44.444;26.006;2022-12-07T10:55:11;100440.53;;;5.39;88.27
46291;BME280;32023;44.444;26.006;2022-12-07T11:08:54;100421.06;;;5.54;89.72
46291;BME280;32023;44.444;26.006;2022-12-07T11:18:32;100414.09;;;5.58;90.41
46291;BME280;32023;44.444;26.006;2022-12-07T11:27:49;100391.78;;;5.79;88.99
46291;BME280;32023;44.444;26.006;2022-12-07T11:46:19;100380.00;;;5.78;88.10
46291;BME280;32023;44.444;26.006;2022-12-07T11:52:51;100376.53;;;5.71;89.51
46291;BME280;32023;44.444;26.006;2022-12-07T12:40:41;100343.00;;;5.28;92.93
46291;BME280;32023;44.444;26.006;2022-12-07T13:00:24;100324.78;;;5.76;91.83
46291;BME280;32023;44.444;26.006;2022-12-07T13:03:42;100327.66;;;5.81;91.25
46291;BME280;32023;44.444;26.006;2022-12-07T13:06:46;100325.09;;;5.87;90.73
46291;BME280;32023;44.444;26.006;2022-12-07T13:09:57;100320.63;;;5.92;90.95
46291;BME280;32023;44.444;26.006;2022-12-07T13:25:37;100325.78;;;6.12;89.36
46291;BME280;32023;44.444;26.006;2022-12-07T13:28:50;100328.94;;;6.15;89.44
46291;BME280;32023;44.444;26.006;2022-12-07T13:31:58;100326.19;;;6.15;89.09
46291;BME280;32023;44.444;26.006;2022-12-07T13:39:23;100327.63;;;6.18;88.95
46291;BME280;32023;44.444;26.006;2022-12-07T15:04:42;100318.78;;;6.57;88.09
46291;BME280;32023;44.444;26.006;2022-12-07T15:07:20;100316.47;;;6.61;87.76
46291;BME280;32023;44.444;26.006;2022-12-07T15:09:54;100322.28;;;6.64;87.34
46291;BME280;32023;44.444;26.006;2022-12-07T15:12:22;100321.44;;;6.64;87.15
46291;BME280;32023;44.444;26.006;2022-12-07T15:14:52;100333.56;;;6.56;86.81
46291;BME280;32023;44.444;26.006;2022-12-07T15:18:02;100323.88;;;6.42;86.84
46291;BME280;32023;44.444;26.006;2022-12-07T15:20:49;100316.88;;;6.46;87.54
46291;BME280;32023;44.444;26.006;2022-12-07T15:23:37;100306.06;;;6.51;87.62
46291;BME280;32023;44.444;26.006;2022-12-07T15:26:13;100304.53;;;6.55;87.45
46291;BME280;32023;44.444;26.006;2022-12-07T15:29:03;100304.06;;;6.58;87.89
46291;BME280;32023;44.444;26.006;2022-12-07T15:34:15;100309.19;;;6.66;87.66
46291;BME280;32023;44.444;26.006;2022-12-07T15:37:16;100319.66;;;6.69;87.37
46291;BME280;32023;44.444;26.006;2022-12-07T15:40:09;100317.06;;;6.74;87.35
46291;BME280;32023;44.444;26.006;2022-12-07T15:45:56;100295.16;;;6.74;86.74
46291;BME280;32023;44.444;26.006;2022-12-07T15:48:28;100294.69;;;6.77;86.75
46291;BME280;32023;44.444;26.006;2022-12-07T15:53:54;100297.66;;;6.76;86.69
46291;BME280;32023;44.444;26.006;2022-12-07T16:00:14;100309.44;;;6.76;86.76
46291;BME280;32023;44.444;26.006;2022-12-07T16:03:06;100298.03;;;6.80;86.71
46291;BME280;32023;44.444;26.006;2022-12-07T16:08:23;100308.00;;;6.62;86.67
46291;BME280;32023;44.444;26.006;2022-12-07T16:10:59;100313.59;;;6.56;86.76
46291;BME280;32023;44.444;26.006;2022-12-07T16:18:43;100309.03;;;6.50;87.46
46291;BME280;32023;44.444;26.006;2022-12-07T16:21:35;100309.13;;;6.43;87.47
46291;BME280;32023;44.444;26.006;2022-12-07T16:31:07;100321.13;;;6.42;88.02
46291;BME280;32023;44.444;26.006;2022-12-07T16:44:11;100326.72;;;6.36;88.01
46291;BME280;32023;44.444;26.006;2022-12-07T16:54:48;100335.03;;;6.29;89.15
46291;BME280;32023;44.444;26.006;2022-12-07T17:17:13;100338.22;;;6.67;87.71
46291;BME280;32023;44.444;26.006;2022-12-07T17:19:40;100332.28;;;6.70;87.39
46291;BME280;32023;44.444;26.006;2022-12-07T17:22:12;100326.31;;;6.73;87.43
46291;BME280;32023;44.444;26.006;2022-12-07T17:24:47;100340.00;;;6.73;87.42
46291;BME280;32023;44.444;26.006;2022-12-07T17:27:28;100349.91;;;6.74;87.27
46291;BME280;32023;44.444;26.006;2022-12-07T17:41:40;100361.09;;;6.85;86.51
46291;BME280;32023;44.444;26.006;2022-12-07T17:44:24;100353.50;;;6.87;86.46
46291;BME280;32023;44.444;26.006;2022-12-07T17:46:55;100358.50;;;6.90;86.38
46291;BME280;32023;44.444;26.006;2022-12-07T17:49:27;100355.50;;;6.91;86.61
46291;BME280;32023;44.444;26.006;2022-12-07T17:51:54;100356.34;;;6.92;86.62
46291;BME280;32023;44.444;26.006;2022-12-07T17:54:47;100363.50;;;6.93;86.24
46291;BME280;32023;44.444;26.006;2022-12-07T17:57:22;100370.63;;;6.94;86.33
46291;BME280;32023;44.444;26.006;2022-12-07T18:00:04;100370.03;;;6.92;85.97
46291;BME280;32023;44.444;26.006;2022-12-07T18:02:36;100374.44;;;6.93;85.89
46291;BME280;32023;44.444;26.006;2022-12-07T18:07:54;100370.63;;;6.94;85.98
46291;BME280;32023;44.444;26.006;2022-12-07T18:10:48;100363.50;;;6.93;85.71
46291;BME280;32023;44.444;26.006;2022-12-07T18:13:21;100355.50;;;6.91;85.87
46291;BME280;32023;44.444;26.006;2022-12-07T18:21:46;100357.19;;;6.92;85.87
46291;BME280;32023;44.444;26.006;2022-12-07T18:24:17;100366.44;;;6.91;86.04
46291;BME280;32023;44.444;26.006;2022-12-07T18:26:47;100371.13;;;6.91;86.09
46291;BME280;32023;44.444;26.006;2022-12-07T18:29:27;100362.44;;;6.94;85.91
46291;BME280;32023;44.444;26.006;2022-12-07T18:32:29;100370.63;;;6.94;85.80
46291;BME280;32023;44.444;26.006;2022-12-07T18:35:14;100367.66;;;6.95;85.83
46291;BME280;32023;44.444;26.006;2022-12-07T18:37:52;100358.16;;;6.98;85.65
46291;BME280;32023;44.444;26.006;2022-12-07T18:40:20;100353.72;;;6.97;85.42
46291;BME280;32023;44.444;26.006;2022-12-07T18:42:48;100353.38;;;6.93;85.70
46291;BME280;32023;44.444;26.006;2022-12-07T18:45:42;100363.50;;;6.93;85.51
46291;BME280;32023;44.444;26.006;2022-12-07T18:51:03;100351.00;;;6.97;85.74
46291;BME280;32023;44.444;26.006;2022-12-07T18:54:01;100344.19;;;6.88;85.40
46291;BME280;32023;44.444;26.006;2022-12-07T19:07:07;100319.34;;;6.36;87.68
46291;BME280;32023;44.444;26.006;2022-12-07T19:12:14;100328.81;;;6.22;88.46
46291;BME280;32023;44.444;26.006;2022-12-07T19:17:35;100360.38;;;6.36;88.51
46291;BME280;32023;44.444;26.006;2022-12-07T19:20:07;100355.28;;;6.40;88.14
46291;BME280;32023;44.444;26.006;2022-12-07T19:22:44;100356.84;;;6.47;88.11
46291;BME280;32023;44.444;26.006;2022-12-07T19:25:18;100352.94;;;6.55;87.81
46291;BME280;32023;44.444;26.006;2022-12-07T19:27:45;100362.97;;;6.61;87.73
46291;BME280;32023;44.444;26.006;2022-12-07T19:30:18;100368.19;;;6.62;87.26
46291;BME280;32023;44.444;26.006;2022-12-07T19:32:54;100376.25;;;6.57;86.73
46291;BME280;32023;44.444;26.006;2022-12-07T19:35:21;100362.94;;;6.49;86.81
46291;BME280;32023;44.444;26.006;2022-12-07T19:37:51;100356.25;;;6.45;87.18
46291;BME280;32023;44.444;26.006;2022-12-07T19:45:40;100359.72;;;6.52;87.59
46291;BME280;32023;44.444;26.006;2022-12-07T19:48:12;100356.50;;;6.55;87.50
46291;BME280;32023;44.444;26.006;2022-12-07T19:50:55;100367.59;;;6.60;87.17
46291;BME280;32023;44.444;26.006;2022-12-07T20:46:20;100355.50;;;6.91;86.26
46291;BME280;32023;44.444;26.006;2022-12-07T20:48:56;100362.44;;;6.94;86.13
46291;BME280;32023;44.444;26.006;2022-12-07T20:55:28;100380.38;;;6.90;85.96
46291;BME280;32023;44.444;26.006;2022-12-07T21:08:18;100367.53;;;6.90;86.34
46291;BME280;32023;44.444;26.006;2022-12-07T21:13:47;100362.91;;;6.91;86.37
46291;BME280;32023;44.444;26.006;2022-12-07T21:16:18;100375.50;;;6.92;86.25
46291;BME280;32023;44.444;26.006;2022-12-07T21:18:59;100374.91;;;6.90;86.15
46291;BME280;32023;44.444;26.006;2022-12-07T21:21:45;100382.50;;;6.88;86.23
46291;BME280;32023;44.444;26.006;2022-12-07T21:24:35;100384.66;;;6.86;86.26
46291;BME280;32023;44.444;26.006;2022-12-07T21:29:46;100380.13;;;6.80;86.30
46291;BME280;32023;44.444;26.006;2022-12-07T21:32:46;100387.72;;;6.77;86.18
46291;BME280;32023;44.444;26.006;2022-12-07T21:35:45;100385.47;;;6.74;86.16
46291;BME280;32023;44.444;26.006;2022-12-07T21:38:19;100394.75;;;6.73;86.18
46291;BME280;32023;44.444;26.006;2022-12-07T21:40:55;100396.63;;;6.73;86.12
46291;BME280;32023;44.444;26.006;2022-12-07T21:44:06;100394.59;;;6.68;86.17
46291;BME280;32023;44.444;26.006;2022-12-07T21:46:38;100398.44;;;6.67;86.35
46291;BME280;32023;44.444;26.006;2022-12-07T21:49:19;100410.66;;;6.65;86.26
46291;BME280;32023;44.444;26.006;2022-12-07T21:55:18;100411.13;;;6.62;86.50
46291;BME280;32023;44.444;26.006;2022-12-07T21:58:26;100415.75;;;6.61;86.50
46291;BME280;32023;44.444;26.006;2022-12-07T22:00:54;100415.75;;;6.61;86.73
46291;BME280;32023;44.444;26.006;2022-12-07T22:06:54;100399.13;;;6.63;86.78
46291;BME280;32023;44.444;26.006;2022-12-07T22:09:37;100395.53;;;6.62;86.70
46291;BME280;32023;44.444;26.006;2022-12-07T22:12:21;100409.47;;;6.61;86.29
46291;BME280;32023;44.444;26.006;2022-12-07T22:17:56;100397.91;;;6.59;86.57
46291;BME280;32023;44.444;26.006;2022-12-07T22:23:48;100407.91;;;6.53;86.62
46291;BME280;32023;44.444;26.006;2022-12-07T22:26:35;100244.91;;;5.45;86.52
46291;BME280;32023;44.444;26.006;2022-12-07T22:32:49;100421.06;;;6.45;86.48
46291;BME280;32023;44.444;26.006;2022-12-07T22:35:34;100428.22;;;6.46;86.82
46291;BME280;32023;44.444;26.006;2022-12-07T22:38:43;100438.31;;;6.45;86.64
46291;BME280;32023;44.444;26.006;2022-12-07T22:44:38;100450.84;;;6.35;86.89
46291;BME280;32023;44.444;26.006;2022-12-07T22:48:06;100447.72;;;6.31;86.89
46291;BME280;32023;44.444;26.006;2022-12-07T22:51:25;100432.16;;;6.32;87.59
46291;BME280;32023;44.444;26.006;2022-12-07T22:54:35;100422.44;;;6.36;87.47
46291;BME280;32023;44.444;26.006;2022-12-07T23:00:58;100419.47;;;6.37;87.46
46291;BME280;32023;44.444;26.006;2022-12-07T23:03:46;100417.69;;;6.43;87.74
46291;BME280;32023;44.444;26.006;2022-12-07T23:06:34;100416.44;;;6.45;87.58
46291;BME280;32023;44.444;26.006;2022-12-07T23:09:31;100425.00;;;6.49;87.51
46291;BME280;32023;44.444;26.006;2022-12-07T23:12:21;100425.22;;;6.47;87.48
46291;BME280;32023;44.444;26.006;2022-12-07T23:15:06;100421.44;;;6.48;87.76
46291;BME280;32023;44.444;26.006;2022-12-07T23:17:34;100419.75;;;6.47;87.53
46291;BME280;32023;44.444;26.006;2022-12-07T23:20:07;100424.38;;;6.47;87.38
46291;BME280;32023;44.444;26.006;2022-12-07T23:22:46;100420.59;;;6.48;87.51
46291;BME280;32023;44.444;26.006;2022-12-07T23:25:25;100420.44;;;6.43;87.52
46291;BME280;32023;44.444;26.006;2022-12-07T23:28:07;100411.88;;;6.39;87.61
46291;BME280;32023;44.444;26.006;2022-12-07T23:30:59;100417.22;;;6.34;87.58
46291;BME280;32023;44.444;26.006;2022-12-07T23:33:25;100418.28;;;6.33;87.52
46291;BME280;32023;44.444;26.006;2022-12-07T23:36:14;100429.22;;;6.33;88.04
46291;BME280;32023;44.444;26.006;2022-12-07T23:38:53;100423.50;;;6.35;87.94
46291;BME280;32023;44.444;26.006;2022-12-07T23:41:27;100420.53;;;6.36;87.85
46291;BME280;32023;44.444;26.006;2022-12-07T23:43:59;100415.06;;;6.36;87.67
